Time;durP1;ratioP1;P1;durP2;ratioP2;P2;SDS_P1;SDS_P2;PMS_P1;PMS_P2;Temp;Humidity;BMP_temperature;BMP_pressure;BME280_temperature;BME280_humidity;BME280_pressure;Samples;Min_cycle;Max_cycle;Signal;HPM_P1;HPM_P2
2021/01/02 00:02:18;;;;;;;10.95;2.58;;;10.30;99.90;;;;;;5114120;28;20102;-77
2021/01/02 00:05:01;;;;;;;14.65;3.13;;;10.30;99.90;;;;;;5113553;28;20471;-78
2021/01/02 00:07:57;;;;;;;6.35;2.35;;;10.30;99.90;;;;;;5113983;28;20046;-77
2021/01/02 00:10:28;;;;;;;12.27;3.78;;;10.40;99.90;;;;;;5106474;28;20023;-77
2021/01/02 00:13:24;;;;;;;15.65;3.13;;;10.30;99.90;;;;;;5095588;28;20023;-77
2021/01/02 00:16:04;;;;;;;17.20;3.42;;;10.40;99.90;;;;;;5105420;28;20031;-78
2021/01/02 00:19:01;;;;;;;11.70;3.25;;;10.40;99.90;;;;;;5114389;28;20023;-77
2021/01/02 00:21:27;;;;;;;12.57;3.15;;;10.40;99.90;;;;;;5115665;28;20026;-78
2021/01/02 00:24:26;;;;;;;10.82;2.40;;;10.40;99.90;;;;;;5113939;28;20023;-77
2021/01/02 00:27:05;;;;;;;20.23;3.78;;;10.30;99.90;;;;;;5093570;28;20045;-78
2021/01/02 00:30:01;;;;;;;17.75;3.35;;;10.30;99.90;;;;;;5095375;28;20022;-78
2021/01/02 00:32:41;;;;;;;14.45;2.70;;;10.30;99.90;;;;;;5106078;28;20046;-78
2021/01/02 00:35:17;;;;;;;16.38;3.35;;;10.20;99.90;;;;;;5112474;28;20027;-78
2021/01/02 00:38:04;;;;;;;12.55;2.63;;;10.20;99.90;;;;;;5104645;27;20039;-78
2021/01/02 00:40:32;;;;;;;14.85;2.72;;;10.20;99.90;;;;;;5094966;28;20071;-77
2021/01/02 00:42:58;;;;;;;16.45;3.00;;;10.20;99.90;;;;;;5113072;28;20383;-77
2021/01/02 00:45:26;;;;;;;13.10;3.00;;;10.20;99.90;;;;;;5113458;28;20029;-77
2021/01/02 00:47:52;;;;;;;11.00;3.45;;;10.20;99.90;;;;;;5113079;28;20023;-77
2021/01/02 00:50:27;;;;;;;15.48;2.78;;;10.20;99.90;;;;;;5113503;28;20099;-77
2021/01/02 00:53:36;;;;;;;8.02;2.63;;;10.20;99.90;;;;;;5113200;28;20020;-77
2021/01/02 00:56:20;;;;;;;12.25;2.22;;;10.20;99.90;;;;;;5066028;28;20047;-77
2021/01/02 00:59:07;;;;;;;15.73;3.45;;;10.40;99.90;;;;;;5113170;28;20020;-77
2021/01/02 01:01:43;;;;;;;7.38;2.30;;;10.50;99.90;;;;;;5113393;28;20024;-77
2021/01/02 01:04:18;;;;;;;16.15;3.08;;;10.50;99.90;;;;;;5113174;28;20080;-77
2021/01/02 01:06:51;;;;;;;11.07;3.30;;;10.60;99.90;;;;;;5113149;28;20024;-78
2021/01/02 01:09:22;;;;;;;16.33;2.63;;;10.60;99.90;;;;;;5113078;28;20016;-77
2021/01/02 01:11:52;;;;;;;21.20;3.00;;;10.50;99.90;;;;;;5112744;28;20027;-78
2021/01/02 01:14:18;;;;;;;6.55;2.42;;;10.40;99.90;;;;;;5112585;28;20047;-77
2021/01/02 01:16:47;;;;;;;10.35;2.30;;;10.50;99.90;;;;;;5094661;28;20036;-77
2021/01/02 01:19:16;;;;;;;6.28;2.33;;;10.50;99.90;;;;;;5112721;28;20016;-77
2021/01/02 01:21:46;;;;;;;13.00;2.55;;;10.50;99.90;;;;;;5113018;28;20031;-77
2021/01/02 01:24:33;;;;;;;8.73;2.70;;;10.50;99.90;;;;;;5112400;28;20420;-77
2021/01/02 01:27:01;;;;;;;9.55;2.28;;;10.50;99.90;;;;;;5059106;28;20381;-79
2021/01/02 01:29:34;;;;;;;8.05;3.40;;;10.40;99.90;;;;;;5112620;28;20020;-77
2021/01/02 01:32:01;;;;;;;7.57;2.25;;;10.40;99.90;;;;;;5094726;28;20030;-77
2021/01/02 01:34:27;;;;;;;6.75;1.85;;;10.40;99.90;;;;;;5093960;28;20027;-77
2021/01/02 01:36:54;;;;;;;8.05;1.90;;;10.40;99.90;;;;;;5118411;27;20589;-78
2021/01/02 01:39:23;;;;;;;8.05;2.22;;;10.50;99.90;;;;;;5103878;28;20126;-77
2021/01/02 01:42:13;;;;;;;6.30;1.77;;;10.50;99.90;;;;;;5111972;28;20051;-78
2021/01/02 01:45:19;;;;;;;16.70;2.58;;;10.60;99.90;;;;;;5110888;28;20039;-77
2021/01/02 01:48:04;;;;;;;9.07;2.13;;;10.60;99.90;;;;;;5090575;28;20036;-77
2021/01/02 01:51:00;;;;;;;8.00;1.88;;;10.70;99.90;;;;;;5112301;28;20015;-77
2021/01/02 01:54:17;;;;;;;4.63;1.80;;;10.70;99.90;;;;;;5110938;28;20024;-77
2021/01/02 01:56:54;;;;;;;6.07;1.85;;;10.70;99.90;;;;;;5111840;28;20044;-77
2021/01/02 01:59:22;;;;;;;6.05;2.00;;;10.60;99.90;;;;;;5112267;28;20023;-77
2021/01/02 02:01:53;;;;;;;6.18;1.98;;;10.60;99.90;;;;;;5112227;28;20051;-78
2021/01/02 02:04:56;;;;;;;8.20;1.83;;;10.50;99.90;;;;;;5112014;28;20020;-78
2021/01/02 02:07:46;;;;;;;14.07;2.90;;;10.30;99.90;;;;;;5112309;28;20023;-77
2021/01/02 02:10:31;;;;;;;7.22;2.03;;;10.30;99.90;;;;;;5112149;28;20469;-78
2021/01/02 02:13:00;;;;;;;8.90;2.15;;;10.30;99.90;;;;;;5112160;28;20095;-77
2021/01/02 02:15:28;;;;;;;4.32;2.00;;;10.20;99.90;;;;;;5111629;28;20027;-78
2021/01/02 02:18:03;;;;;;;7.10;2.05;;;10.10;99.90;;;;;;5111963;28;20019;-78
2021/01/02 02:20:30;;;;;;;6.53;1.83;;;10.10;99.90;;;;;;5093729;28;20023;-77
2021/01/02 02:23:08;;;;;;;1.70;1.33;;;10.00;99.90;;;;;;5112035;28;20476;-78
2021/01/02 02:25:46;;;;;;;2.95;1.75;;;9.90;99.90;;;;;;5115899;28;20036;-77
2021/01/02 02:28:30;;;;;;;3.13;1.52;;;9.90;99.90;;;;;;5115809;28;20015;-77
2021/01/02 02:30:59;;;;;;;6.78;1.40;;;9.90;99.90;;;;;;5115887;28;20054;-76
2021/01/02 02:33:30;;;;;;;7.13;3.10;;;9.90;99.90;;;;;;5115918;28;20086;-78
2021/01/02 02:35:56;;;;;;;3.78;1.65;;;9.80;99.90;;;;;;5116088;28;20019;-77
2021/01/02 02:38:22;;;;;;;7.70;1.83;;;9.80;99.90;;;;;;5097614;28;20102;-77
2021/01/02 02:40:48;;;;;;;6.10;2.65;;;9.80;99.90;;;;;;5116004;28;20039;-78
2021/01/02 02:43:17;;;;;;;4.50;2.42;;;9.80;99.90;;;;;;5115754;28;20132;-78
2021/01/02 02:45:42;;;;;;;5.72;1.40;;;9.80;99.90;;;;;;5116014;28;20024;-77
2021/01/02 02:48:13;;;;;;;1.77;1.25;;;9.80;99.90;;;;;;5116161;28;20024;-77
2021/01/02 02:50:43;;;;;;;4.95;1.70;;;9.80;99.90;;;;;;5115695;28;20075;-78
2021/01/02 02:53:14;;;;;;;5.05;1.80;;;9.80;99.90;;;;;;5119206;27;20019;-77
2021/01/02 02:55:42;;;;;;;3.40;1.80;;;9.80;99.90;;;;;;5115576;27;20027;-78
2021/01/02 02:58:09;;;;;;;10.60;1.90;;;9.90;99.90;;;;;;5115467;28;20318;-77
2021/01/02 03:00:36;;;;;;;7.30;1.80;;;9.80;99.90;;;;;;5115235;28;20038;-77
2021/01/02 03:03:03;;;;;;;9.88;2.25;;;9.80;99.90;;;;;;5115509;28;20023;-76
2021/01/02 03:05:29;;;;;;;7.90;1.65;;;9.80;99.90;;;;;;5115206;28;20027;-77
2021/01/02 03:07:56;;;;;;;10.57;1.75;;;9.80;99.90;;;;;;5115387;28;20031;-77
2021/01/02 03:10:22;;;;;;;6.93;1.48;;;9.90;99.90;;;;;;5115246;28;20027;-77
2021/01/02 03:12:50;;;;;;;8.00;2.22;;;9.90;99.90;;;;;;5115428;28;20094;-77
2021/01/02 03:15:22;;;;;;;9.10;2.00;;;9.90;99.90;;;;;;5115296;28;20050;-77
2021/01/02 03:17:49;;;;;;;7.05;1.90;;;9.90;99.90;;;;;;5114657;28;20039;-77
2021/01/02 03:20:16;;;;;;;8.90;1.65;;;10.00;99.90;;;;;;5114852;28;20023;-78
2021/01/02 03:22:44;;;;;;;5.97;1.67;;;10.00;99.90;;;;;;5115059;28;20024;-78
2021/01/02 03:25:12;;;;;;;9.32;1.90;;;10.10;99.90;;;;;;5115496;28;20046;-77
2021/01/02 03:27:38;;;;;;;4.72;1.80;;;10.20;99.90;;;;;;5114871;28;20106;-77
2021/01/02 03:30:06;;;;;;;5.72;1.88;;;10.20;99.90;;;;;;5114960;28;20020;-77
2021/01/02 03:32:33;;;;;;;3.50;1.83;;;10.20;99.90;;;;;;5114761;28;20114;-77
2021/01/02 03:34:59;;;;;;;6.22;1.60;;;10.30;99.90;;;;;;5114178;28;20028;-78
2021/01/02 03:37:25;;;;;;;8.18;1.45;;;10.30;99.90;;;;;;5114468;28;20104;-77
2021/01/02 03:39:50;;;;;;;5.85;1.90;;;10.30;99.90;;;;;;5114576;28;20040;-77
2021/01/02 03:42:16;;;;;;;8.30;1.50;;;10.30;99.90;;;;;;5114736;28;20039;-77
2021/01/02 03:44:42;;;;;;;1.48;1.02;;;10.40;99.90;;;;;;5114841;28;20051;-77
2021/01/02 03:47:09;;;;;;;5.80;1.40;;;10.30;99.90;;;;;;5114470;28;20383;-78
2021/01/02 03:49:35;;;;;;;8.52;1.55;;;10.30;99.90;;;;;;5100346;28;20018;-77
2021/01/02 03:52:04;;;;;;;4.93;1.40;;;10.30;99.90;;;;;;5114698;28;20035;-77
2021/01/02 03:54:30;;;;;;;5.18;1.55;;;10.20;99.90;;;;;;5114550;28;20012;-77
2021/01/02 03:56:57;;;;;;;6.10;1.30;;;10.20;99.90;;;;;;5113845;28;20092;-77
2021/01/02 03:59:23;;;;;;;5.00;1.13;;;10.20;99.90;;;;;;5113905;28;20082;-77
2021/01/02 04:01:59;;;;;;;5.25;1.27;;;10.10;99.90;;;;;;5114654;28;20039;-77
2021/01/02 04:04:26;;;;;;;4.53;1.10;;;10.10;99.90;;;;;;5100490;28;20119;-77
2021/01/02 04:06:52;;;;;;;5.65;1.70;;;10.10;99.90;;;;;;5095867;28;20370;-77
2021/01/02 04:09:18;;;;;;;5.40;1.60;;;10.10;99.90;;;;;;5114296;28;20098;-77
2021/01/02 04:11:45;;;;;;;9.05;1.40;;;10.10;99.90;;;;;;5114021;28;20745;-77
2021/01/02 04:14:11;;;;;;;3.28;1.17;;;10.10;99.90;;;;;;5114217;28;20016;-77
2021/01/02 04:16:38;;;;;;;3.95;1.70;;;10.10;99.90;;;;;;5113254;28;20047;-77
2021/01/02 04:19:04;;;;;;;3.85;2.03;;;10.00;99.90;;;;;;5097907;28;20020;-77
2021/01/02 04:21:31;;;;;;;4.18;1.42;;;10.00;99.90;;;;;;5113737;28;20424;-77
2021/01/02 04:23:57;;;;;;;4.35;1.77;;;10.10;99.90;;;;;;5113784;28;20024;-77
2021/01/02 04:26:24;;;;;;;5.50;2.33;;;10.10;99.90;;;;;;5113524;28;20018;-77
2021/01/02 04:28:51;;;;;;;4.30;1.50;;;10.00;99.90;;;;;;5111876;28;20030;-77
2021/01/02 04:31:21;;;;;;;2.28;1.38;;;10.00;99.90;;;;;;5113769;28;20428;-76
2021/01/02 04:33:48;;;;;;;3.85;1.40;;;10.00;99.90;;;;;;5113495;28;20562;-78
2021/01/02 04:36:14;;;;;;;4.43;1.42;;;9.90;99.90;;;;;;5113105;28;20034;-77
2021/01/02 04:38:40;;;;;;;6.55;1.50;;;9.90;99.90;;;;;;5113258;28;20054;-77
2021/01/02 04:41:06;;;;;;;4.82;1.52;;;10.00;99.90;;;;;;5113481;28;20082;-77
2021/01/02 04:43:32;;;;;;;3.15;1.30;;;10.10;99.90;;;;;;5095623;28;20059;-78
2021/01/02 04:46:00;;;;;;;1.98;1.20;;;10.10;99.90;;;;;;5112925;28;20015;-77
2021/01/02 04:48:27;;;;;;;2.83;1.10;;;10.10;99.90;;;;;;5112658;28;20487;-77
2021/01/02 04:50:52;;;;;;;5.45;1.48;;;10.00;99.90;;;;;;5113493;28;20020;-77
2021/01/02 04:53:19;;;;;;;5.18;1.45;;;10.00;99.90;;;;;;5113488;28;20387;-77
2021/01/02 04:55:45;;;;;;;6.22;1.83;;;10.00;99.90;;;;;;5112884;28;20024;-77
2021/01/02 04:58:15;;;;;;;4.85;1.40;;;10.10;99.90;;;;;;5112077;28;20073;-77
2021/01/02 05:00:41;;;;;;;4.60;1.48;;;10.30;99.90;;;;;;5112548;28;20028;-78
2021/01/02 05:03:08;;;;;;;1.98;1.45;;;10.30;99.90;;;;;;5095299;28;20669;-77
2021/01/02 05:05:35;;;;;;;3.28;1.35;;;10.40;99.90;;;;;;5112733;28;20475;-77
2021/01/02 05:08:02;;;;;;;8.10;1.40;;;10.50;99.90;;;;;;5112670;28;20102;-77
2021/01/02 05:10:27;;;;;;;7.40;1.85;;;10.50;99.90;;;;;;5114258;28;20472;-76
2021/01/02 05:13:07;;;;;;;2.97;1.30;;;10.70;99.90;;;;;;5112795;28;20128;-77
2021/01/02 05:15:33;;;;;;;3.25;1.58;;;10.70;99.90;;;;;;5112846;28;20019;-76
2021/01/02 05:17:59;;;;;;;5.97;1.63;;;10.70;99.90;;;;;;5112923;28;20024;-76
2021/01/02 05:20:25;;;;;;;9.10;1.65;;;10.70;99.90;;;;;;5112568;28;20023;-77
2021/01/02 05:22:51;;;;;;;6.30;2.25;;;10.70;99.90;;;;;;5094280;28;20032;-76
2021/01/02 05:25:21;;;;;;;4.28;1.60;;;10.70;99.90;;;;;;5112919;28;20030;-76
2021/01/02 05:27:49;;;;;;;5.25;1.75;;;10.50;99.90;;;;;;5112241;28;20472;-77
2021/01/02 05:30:25;;;;;;;6.38;2.20;;;10.40;99.90;;;;;;5111938;28;20038;-77
2021/01/02 05:32:58;;;;;;;5.53;1.70;;;10.40;99.90;;;;;;5112350;28;20028;-77
2021/01/02 05:35:36;;;;;;;6.40;1.88;;;10.40;99.90;;;;;;5112228;28;20394;-76
2021/01/02 05:38:28;;;;;;;3.78;1.67;;;10.40;99.90;;;;;;5094385;28;20039;-77
2021/01/02 05:40:58;;;;;;;3.08;1.40;;;10.30;99.90;;;;;;5097360;28;20044;-77
2021/01/02 05:43:26;;;;;;;6.30;1.70;;;10.20;99.90;;;;;;5112480;28;20012;-77
2021/01/02 05:45:53;;;;;;;6.40;2.78;;;10.20;99.90;;;;;;5112701;28;20019;-77
2021/01/02 05:48:20;;;;;;;3.08;1.50;;;10.20;99.90;;;;;;5093171;28;20114;-76
2021/01/02 05:51:00;;;;;;;6.97;1.70;;;10.10;99.90;;;;;;5111389;28;20035;-77
2021/01/02 05:53:34;;;;;;;4.47;1.55;;;10.10;99.90;;;;;;5112517;28;20024;-76
2021/01/02 05:56:06;;;;;;;7.82;1.75;;;10.00;99.90;;;;;;5111980;28;20118;-76
2021/01/02 05:58:43;;;;;;;4.07;1.50;;;10.00;99.90;;;;;;5111733;28;20103;-77
2021/01/02 06:01:17;;;;;;;4.97;1.55;;;10.00;99.90;;;;;;5112186;28;20019;-77
2021/01/02 06:03:48;;;;;;;4.65;1.55;;;10.00;99.90;;;;;;5111666;28;20156;-77
2021/01/02 06:06:16;;;;;;;4.68;2.08;;;10.00;99.90;;;;;;5111926;28;20020;-76
2021/01/02 06:08:50;;;;;;;3.30;1.55;;;10.00;99.90;;;;;;5112087;28;20099;-77
2021/01/02 06:11:21;;;;;;;5.50;1.65;;;10.00;99.90;;;;;;5098447;28;20050;-76
2021/01/02 06:13:50;;;;;;;3.17;1.43;;;10.00;99.90;;;;;;5112142;28;20042;-76
2021/01/02 06:16:17;;;;;;;7.15;1.92;;;10.00;99.90;;;;;;5112112;28;20030;-77
2021/01/02 06:18:44;;;;;;;9.60;1.95;;;10.00;99.90;;;;;;5111847;28;20024;-77
2021/01/02 06:21:12;;;;;;;4.45;1.50;;;10.00;99.90;;;;;;5111613;28;20031;-77
2021/01/02 06:23:39;;;;;;;1.73;1.25;;;10.00;99.90;;;;;;5111808;28;20020;-77
2021/01/02 06:26:09;;;;;;;2.72;1.38;;;10.00;99.90;;;;;;5111608;28;20102;-76
2021/01/02 06:28:41;;;;;;;5.60;1.80;;;10.00;99.90;;;;;;5111333;28;20016;-76
2021/01/02 06:31:15;;;;;;;7.95;1.70;;;10.00;99.90;;;;;;5120313;28;20032;-76
2021/01/02 06:33:48;;;;;;;3.97;1.40;;;10.00;99.90;;;;;;5107413;28;20107;-77
2021/01/02 06:36:28;;;;;;;3.53;1.52;;;9.90;99.90;;;;;;5111863;28;20157;-76
2021/01/02 06:39:20;;;;;;;2.90;1.40;;;9.90;99.90;;;;;;5108427;28;20468;-76
2021/01/02 06:41:46;;;;;;;2.33;1.58;;;9.90;99.90;;;;;;5111551;28;20047;-78
2021/01/02 06:44:45;;;;;;;8.50;1.70;;;9.90;99.90;;;;;;5093255;28;20491;-78
2021/01/02 06:47:32;;;;;;;6.70;2.83;;;9.90;99.90;;;;;;5102631;28;20088;-78
2021/01/02 06:49:58;;;;;;;7.10;1.98;;;9.90;99.90;;;;;;5107213;28;20495;-78
2021/01/02 06:52:35;;;;;;;9.32;2.20;;;9.90;99.90;;;;;;5102258;28;20058;-78
2021/01/02 06:55:24;;;;;;;3.88;2.53;;;10.00;99.90;;;;;;5111832;28;20112;-78
2021/01/02 06:57:51;;;;;;;3.38;1.60;;;10.00;99.90;;;;;;5089809;28;20028;-77
2021/01/02 07:00:25;;;;;;;2.65;1.70;;;10.00;99.90;;;;;;5109526;28;20476;-77
2021/01/02 07:02:55;;;;;;;3.80;1.80;;;10.00;99.90;;;;;;5111349;28;20087;-78
2021/01/02 07:05:49;;;;;;;9.73;2.33;;;10.00;99.90;;;;;;5111063;28;20015;-78
2021/01/02 07:08:41;;;;;;;10.25;2.40;;;10.10;99.90;;;;;;5111197;28;20023;-77
2021/01/02 07:11:33;;;;;;;9.75;2.05;;;10.20;99.90;;;;;;5114480;28;20091;-78
2021/01/02 07:14:08;;;;;;;4.95;1.70;;;10.20;99.90;;;;;;5097080;28;20057;-77
2021/01/02 07:16:55;;;;;;;3.78;1.80;;;10.30;99.90;;;;;;5096856;28;20020;-78
2021/01/02 07:19:30;;;;;;;9.20;1.70;;;10.50;99.90;;;;;;5098172;28;20118;-77
2021/01/02 07:22:07;;;;;;;7.30;2.05;;;10.50;99.90;;;;;;5115130;28;20471;-77
2021/01/02 07:24:41;;;;;;;4.45;1.90;;;10.50;99.90;;;;;;5114437;28;20467;-78
2021/01/02 07:27:12;;;;;;;7.93;2.17;;;10.50;99.90;;;;;;5096782;28;20114;-78
2021/01/02 07:29:39;;;;;;;5.43;2.10;;;10.50;99.90;;;;;;5114850;28;20023;-78
2021/01/02 07:32:25;;;;;;;7.50;2.38;;;10.50;99.90;;;;;;5115253;28;20034;-78
2021/01/02 07:35:03;;;;;;;6.65;2.28;;;10.50;99.90;;;;;;5117332;28;20023;-77
2021/01/02 07:37:31;;;;;;;8.65;2.10;;;10.50;99.90;;;;;;5114466;28;20027;-77
2021/01/02 07:40:03;;;;;;;7.63;2.05;;;10.50;99.90;;;;;;5095637;28;20028;-78
2021/01/02 07:42:31;;;;;;;6.78;1.92;;;10.50;99.90;;;;;;5114571;28;20111;-78
2021/01/02 07:45:09;;;;;;;5.85;2.50;;;10.50;99.90;;;;;;5096073;28;20024;-78
2021/01/02 07:47:36;;;;;;;6.47;2.47;;;10.50;99.90;;;;;;5114790;28;20024;-77
2021/01/02 07:50:09;;;;;;;7.85;2.17;;;10.50;99.90;;;;;;5096189;28;20093;-78
2021/01/02 07:52:35;;;;;;;8.43;2.47;;;10.70;99.90;;;;;;5114712;28;20027;-78
2021/01/02 07:55:09;;;;;;;5.78;2.35;;;10.80;99.90;;;;;;5114846;28;20068;-78
2021/01/02 07:57:35;;;;;;;15.30;2.47;;;10.90;99.90;;;;;;5114096;28;20034;-77
2021/01/02 08:00:00;;;;;;;10.18;2.20;;;11.00;99.90;;;;;;5114029;28;20019;-78
2021/01/02 08:02:28;;;;;;;12.20;2.55;;;11.10;99.90;;;;;;5114433;28;20019;-77
2021/01/02 08:04:54;;;;;;;12.48;2.50;;;11.10;99.90;;;;;;5114521;28;20102;-78
2021/01/02 08:07:21;;;;;;;9.73;2.20;;;11.20;99.90;;;;;;5114247;28;20016;-78
2021/01/02 08:09:48;;;;;;;10.27;2.50;;;11.20;99.90;;;;;;5114317;28;20020;-78
2021/01/02 08:12:15;;;;;;;8.73;4.57;;;11.20;99.90;;;;;;5114050;28;20048;-77
2021/01/02 08:14:47;;;;;;;10.45;4.55;;;11.30;99.90;;;;;;5114112;28;20046;-78
2021/01/02 08:17:20;;;;;;;7.32;3.53;;;11.30;99.90;;;;;;5107702;28;20031;-78
2021/01/02 08:19:45;;;;;;;8.18;4.55;;;11.40;99.90;;;;;;5113309;28;20538;-78
2021/01/02 08:22:11;;;;;;;7.13;2.78;;;11.40;99.90;;;;;;5098388;28;20032;-77
2021/01/02 08:24:39;;;;;;;24.50;11.75;;;11.50;99.90;;;;;;5113658;28;20357;-78
2021/01/02 08:27:05;;;;;;;16.50;6.18;;;11.50;99.90;;;;;;5114119;28;20066;-77
2021/01/02 08:29:34;;;;;;;7.25;4.57;;;11.60;99.90;;;;;;5113318;28;20132;-78
2021/01/02 08:32:10;;;;;;;8.98;3.92;;;11.60;99.90;;;;;;5113391;28;20035;-78
2021/01/02 08:34:36;;;;;;;14.15;6.60;;;11.60;99.90;;;;;;5113524;28;20460;-77
2021/01/02 08:37:09;;;;;;;15.07;6.05;;;11.60;99.90;;;;;;5113272;28;20035;-78
2021/01/02 08:39:38;;;;;;;13.93;4.80;;;11.50;99.90;;;;;;5113134;28;20024;-78
2021/01/02 08:42:06;;;;;;;12.82;5.40;;;11.60;99.90;;;;;;5113116;28;20106;-78
2021/01/02 08:44:37;;;;;;;12.07;4.72;;;11.60;99.90;;;;;;5113353;28;20019;-77
2021/01/02 08:47:06;;;;;;;9.25;3.47;;;11.60;99.90;;;;;;5094635;28;20035;-78
2021/01/02 08:49:45;;;;;;;17.95;8.10;;;11.60;99.90;;;;;;5113509;28;20012;-78
2021/01/02 08:52:25;;;;;;;19.95;6.38;;;11.60;99.90;;;;;;5112699;28;20223;-78
2021/01/02 08:55:10;;;;;;;13.05;6.07;;;11.70;99.90;;;;;;5117575;27;20049;-78
2021/01/02 08:57:42;;;;;;;9.68;5.30;;;11.70;99.90;;;;;;5115027;27;20484;-77
2021/01/02 09:00:13;;;;;;;20.83;6.55;;;11.70;99.90;;;;;;5100081;28;20064;-78
2021/01/02 09:02:41;;;;;;;11.15;3.65;;;11.70;99.90;;;;;;5103274;27;20509;-77
2021/01/02 09:05:25;;;;;;;5.97;3.20;;;11.70;99.90;;;;;;5123754;27;20023;-78
2021/01/02 09:07:59;;;;;;;13.68;3.15;;;11.70;99.90;;;;;;5124533;27;20654;-78
2021/01/02 09:10:26;;;;;;;7.78;2.85;;;11.70;99.90;;;;;;5124967;27;20360;-78
2021/01/02 09:13:19;;;;;;;11.85;4.38;;;11.70;99.90;;;;;;5126450;27;20442;-77
2021/01/02 09:15:56;;;;;;;13.98;3.17;;;11.70;99.90;;;;;;5117674;27;20038;-77
2021/01/02 09:18:28;;;;;;;14.02;3.05;;;11.70;99.90;;;;;;5127225;27;20023;-77
2021/01/02 09:20:57;;;;;;;;;;;11.70;99.90;;;;;;5123531;27;20019;-78
2021/01/02 09:23:29;;;;;;;6.10;2.80;;;11.70;99.90;;;;;;5116626;27;20114;-78
2021/01/02 09:25:55;;;;;;;19.15;10.45;;;11.70;99.90;;;;;;5112731;28;20027;-78
2021/01/02 09:28:21;;;;;;;17.83;8.32;;;11.70;99.90;;;;;;5117461;27;20075;-79
2021/01/02 09:30:48;;;;;;;12.57;9.15;;;11.80;99.90;;;;;;5100954;28;20028;-78
2021/01/02 09:33:15;;;;;;;12.68;7.22;;;11.80;99.90;;;;;;5112062;28;20076;-77
2021/01/02 09:35:42;;;;;;;11.13;2.72;;;11.90;99.90;;;;;;5112263;28;20437;-78
2021/01/02 09:38:09;;;;;;;8.00;3.05;;;11.90;99.90;;;;;;5111624;28;20119;-77
2021/01/02 09:40:37;;;;;;;13.68;3.38;;;11.90;99.90;;;;;;5112744;28;20040;-78
2021/01/02 09:43:05;;;;;;;9.48;2.80;;;11.90;99.90;;;;;;5112525;28;20023;-77
2021/01/02 09:45:31;;;;;;;7.60;5.07;;;11.90;99.90;;;;;;5112394;28;20012;-77
2021/01/02 09:47:56;;;;;;;9.77;4.47;;;12.00;99.90;;;;;;5112528;28;20077;-78
2021/01/02 09:50:22;;;;;;;9.27;3.05;;;12.00;99.90;;;;;;5112514;28;20030;-78
2021/01/02 09:52:48;;;;;;;8.18;4.53;;;12.00;99.90;;;;;;5112682;28;20016;-78
2021/01/02 09:55:14;;;;;;;13.57;4.07;;;11.90;99.90;;;;;;5112561;28;20095;-77
2021/01/02 09:57:40;;;;;;;7.57;3.05;;;11.90;99.90;;;;;;5113660;28;20095;-77
2021/01/02 10:00:08;;;;;;;10.63;2.78;;;12.00;99.90;;;;;;5112090;28;20418;-78
2021/01/02 10:02:34;;;;;;;8.70;5.18;;;12.00;99.90;;;;;;5111863;28;20051;-78
2021/01/02 10:05:00;;;;;;;7.30;2.85;;;12.00;99.90;;;;;;5112114;28;20480;-78
2021/01/02 10:07:26;;;;;;;10.77;5.00;;;12.00;99.90;;;;;;5111719;28;20043;-78
2021/01/02 10:09:51;;;;;;;9.63;3.38;;;12.10;99.90;;;;;;5103362;28;20028;-77
2021/01/02 10:12:18;;;;;;;12.40;5.30;;;12.10;99.90;;;;;;5115111;28;20016;-78
2021/01/02 10:14:45;;;;;;;5.72;3.05;;;12.10;99.90;;;;;;5101439;28;20034;-78
2021/01/02 10:17:12;;;;;;;10.20;3.75;;;12.20;99.90;;;;;;5111855;28;20038;-77
2021/01/02 10:19:45;;;;;;;4.00;2.28;;;12.30;99.90;;;;;;5110719;28;20024;-74
2021/01/02 10:22:12;;;;;;;9.70;3.88;;;12.40;99.90;;;;;;5110016;28;20545;-78
2021/01/02 10:24:38;;;;;;;8.82;3.20;;;12.40;99.90;;;;;;5110243;28;20098;-73
2021/01/02 10:27:06;;;;;;;13.07;3.70;;;12.50;99.90;;;;;;5114487;28;20020;-79
2021/01/02 10:29:32;;;;;;;14.07;2.78;;;12.60;99.90;;;;;;5116884;28;20016;-78
2021/01/02 10:32:04;;;;;;;10.15;2.42;;;12.60;99.90;;;;;;5116140;28;20039;-75
2021/01/02 10:34:30;;;;;;;9.00;2.45;;;12.70;99.90;;;;;;5118827;28;20479;-75
2021/01/02 10:36:56;;;;;;;6.05;2.50;;;12.70;99.90;;;;;;5115596;28;20050;-74
2021/01/02 10:39:22;;;;;;;17.42;3.65;;;12.70;99.90;;;;;;5109960;28;20020;-76
2021/01/02 10:41:49;;;;;;;8.73;3.20;;;12.80;99.90;;;;;;5114016;28;20054;-80
2021/01/02 10:44:17;;;;;;;11.75;4.30;;;12.80;99.90;;;;;;5108024;28;20030;-77
2021/01/02 10:46:49;;;;;;;7.38;3.90;;;12.80;99.90;;;;;;5121119;27;20031;-78
2021/01/02 10:49:17;;;;;;;8.13;2.50;;;12.80;99.90;;;;;;5111718;28;20016;-78
2021/01/02 10:51:43;;;;;;;11.98;4.13;;;12.80;99.90;;;;;;5115300;28;20020;-74
2021/01/02 10:54:09;;;;;;;12.18;2.67;;;12.80;99.90;;;;;;5115444;28;20035;-75
2021/01/02 10:56:35;;;;;;;10.63;2.88;;;12.70;99.90;;;;;;5115741;28;20031;-78
2021/01/02 10:59:02;;;;;;;13.63;2.85;;;12.80;99.90;;;;;;5119451;27;20028;-78
2021/01/02 11:01:27;;;;;;;11.20;3.17;;;12.80;99.90;;;;;;5114747;28;20112;-75
2021/01/02 11:03:53;;;;;;;16.98;3.28;;;12.80;99.90;;;;;;5096551;28;20120;-75
2021/01/02 11:06:19;;;;;;;18.63;3.72;;;12.80;99.90;;;;;;5105079;28;20012;-75
2021/01/02 11:08:46;;;;;;;7.97;2.58;;;12.70;99.90;;;;;;5115135;28;20027;-75
2021/01/02 11:11:19;;;;;;;17.15;3.00;;;12.70;99.90;;;;;;5115438;28;20429;-81
2021/01/02 11:13:45;;;;;;;9.10;3.10;;;12.70;99.90;;;;;;5113768;28;20051;-76
2021/01/02 11:16:11;;;;;;;14.82;3.20;;;12.80;99.90;;;;;;5115061;28;20070;-76
2021/01/02 11:18:36;;;;;;;13.88;4.50;;;12.80;99.90;;;;;;5118696;27;20432;-79
2021/01/02 11:21:06;;;;;;;11.52;3.67;;;12.80;99.90;;;;;;5115337;28;20510;-81
2021/01/02 11:23:31;;;;;;;10.40;3.42;;;12.80;99.90;;;;;;5115085;28;20103;-74
2021/01/02 11:25:57;;;;;;;20.52;3.85;;;12.80;99.90;;;;;;5115103;28;20380;-79
2021/01/02 11:28:23;;;;;;;15.57;3.28;;;12.80;99.90;;;;;;5114871;28;20027;-75
2021/01/02 11:30:48;;;;;;;10.25;2.75;;;12.80;99.90;;;;;;5100546;28;20054;-80
2021/01/02 11:33:14;;;;;;;5.88;2.80;;;12.80;99.90;;;;;;5109957;28;20082;-78
2021/01/02 11:35:39;;;;;;;13.95;5.85;;;12.70;99.90;;;;;;5110956;28;20015;-75
2021/01/02 11:38:05;;;;;;;10.73;4.65;;;12.40;99.90;;;;;;5096234;28;20028;-75
2021/01/02 11:40:31;;;;;;;15.85;4.18;;;12.20;99.90;;;;;;5118156;27;20391;-81
2021/01/02 11:42:58;;;;;;;13.32;3.67;;;12.20;99.90;;;;;;5115121;28;20034;-76
2021/01/02 11:45:24;;;;;;;11.65;4.68;;;12.20;99.90;;;;;;5113930;28;20116;-76
2021/01/02 11:47:51;;;;;;;11.23;3.33;;;12.20;99.90;;;;;;5114410;28;20054;-78
2021/01/02 11:50:17;;;;;;;11.40;4.40;;;12.10;99.90;;;;;;5121958;27;20027;-75
2021/01/02 11:52:43;;;;;;;8.55;4.55;;;12.00;99.90;;;;;;5113536;27;20034;-75
2021/01/02 11:55:09;;;;;;;16.55;3.95;;;12.00;99.90;;;;;;5108717;27;20384;-77
2021/01/02 11:57:35;;;;;;;9.55;3.47;;;12.00;99.90;;;;;;5113841;27;20114;-75
2021/01/02 12:00:02;;;;;;;8.60;2.47;;;12.10;99.90;;;;;;5115532;27;20024;-82
2021/01/02 12:02:27;;;;;;;10.82;2.95;;;12.10;99.90;;;;;;5120416;27;20032;-78
2021/01/02 12:04:55;;;;;;;11.30;3.33;;;12.10;99.90;;;;;;5113817;28;20027;-82
2021/01/02 12:07:21;;;;;;;7.80;2.90;;;12.10;99.90;;;;;;5113185;28;20030;-81
2021/01/02 12:09:48;;;;;;;5.28;2.17;;;12.10;99.90;;;;;;5113569;28;20516;-75
2021/01/02 12:12:13;;;;;;;14.10;3.00;;;12.20;99.90;;;;;;5119825;27;20027;-80
2021/01/02 12:14:39;;;;;;;11.90;3.40;;;12.20;99.90;;;;;;5113600;28;20031;-74
2021/01/02 12:17:11;;;;;;;7.22;2.13;;;12.30;99.90;;;;;;5125572;27;20043;-75
2021/01/02 12:19:36;;;;;;;7.97;2.50;;;12.40;99.90;;;;;;5123571;27;20019;-74
2021/01/02 12:22:06;;;;;;;11.40;3.50;;;12.40;99.90;;;;;;5132347;27;20030;-77
2021/01/02 12:24:32;;;;;;;12.45;2.90;;;12.40;99.90;;;;;;5126599;27;20024;-81
2021/01/02 12:27:04;;;;;;;13.93;2.80;;;12.40;99.90;;;;;;5128655;27;20027;-74
2021/01/02 12:29:31;;;;;;;6.18;2.45;;;12.40;99.90;;;;;;5123019;27;20032;-80
2021/01/02 12:32:00;;;;;;;5.32;2.13;;;12.40;99.90;;;;;;5113200;28;20095;-72
2021/01/02 12:34:31;;;;;;;8.15;2.17;;;12.40;99.90;;;;;;5112782;28;20031;-75
2021/01/02 12:36:59;;;;;;;8.35;3.40;;;12.40;99.90;;;;;;5113330;28;20178;-81
2021/01/02 12:39:28;;;;;;;7.05;3.38;;;12.30;99.90;;;;;;5114239;27;20023;-72
2021/01/02 12:41:54;;;;;;;11.65;4.75;;;12.10;99.90;;;;;;5113934;27;20497;-79
2021/01/02 12:44:23;;;;;;;4.57;2.75;;;11.90;99.90;;;;;;5120941;27;20042;-79
2021/01/02 12:46:58;;;;;;;6.53;2.63;;;11.80;99.90;;;;;;5127534;27;20019;-75
2021/01/02 12:49:27;;;;;;;4.43;3.05;;;11.70;99.90;;;;;;5125926;27;20576;-75
2021/01/02 12:51:55;;;;;;;5.78;3.15;;;11.60;99.90;;;;;;5122507;27;20023;-74
2021/01/02 12:54:21;;;;;;;3.83;2.20;;;11.50;99.90;;;;;;5125809;27;20019;-81
2021/01/02 12:56:48;;;;;;;3.20;2.17;;;11.40;99.90;;;;;;5121484;27;20039;-73
2021/01/02 12:59:20;;;;;;;4.50;3.13;;;11.30;99.90;;;;;;5121933;27;20769;-81
2021/01/02 13:01:45;;;;;;;3.58;2.53;;;11.30;99.90;;;;;;5123252;27;20031;-77
2021/01/02 13:04:11;;;;;;;16.92;9.70;;;11.20;99.90;;;;;;5103801;27;20315;-75
2021/01/02 13:06:37;;;;;;;10.13;4.43;;;11.20;99.90;;;;;;5124458;27;20015;-86